Time;durP1;ratioP1;P1;durP2;ratioP2;P2;SDS_P1;SDS_P2;PMS_P1;PMS_P2;Temp;Humidity;BMP_temperature;BMP_pressure;BME280_temperature;BME280_humidity;BME280_pressure;Samples;Min_cycle;Max_cycle;Signal;HPM_P1;HPM_P2
2023/08/07 00:01:24;;;;;;;6.28;2.35;;;;;;;17.71;74.58;100755.22;7393000;19;20022;-62
2023/08/07 00:03:51;;;;;;;5.45;2.35;;;;;;;17.64;75.06;100755.00;7396647;19;20703;-62
2023/08/07 00:06:19;;;;;;;5.97;2.58;;;;;;;17.57;75.66;100745.91;7393379;19;20024;-62
2023/08/07 00:08:47;;;;;;;6.35;2.53;;;;;;;17.55;75.82;100750.59;7393426;19;20022;-63
2023/08/07 00:11:14;;;;;;;5.70;2.78;;;;;;;17.52;76.23;100751.75;7393096;19;20051;-63
2023/08/07 00:13:41;;;;;;;8.02;2.92;;;;;;;17.43;76.88;100736.63;7394452;19;20019;-62
2023/08/07 00:16:10;;;;;;;8.05;2.92;;;;;;;17.50;76.82;100751.06;7394049;19;20090;-63
2023/08/07 00:18:37;;;;;;;7.30;2.92;;;;;;;17.56;76.58;100756.81;7392135;19;20021;-62
2023/08/07 00:21:05;;;;;;;7.38;3.20;;;;;;;17.58;76.72;100760.97;7392649;19;20126;-62
2023/08/07 00:23:32;;;;;;;6.25;3.30;;;;;;;17.57;77.11;100755.81;7394695;19;20520;-62
2023/08/07 00:26:00;;;;;;;12.68;4.05;;;;;;;17.53;77.27;100748.06;7392094;19;20018;-63
2023/08/07 00:28:29;;;;;;;7.35;3.33;;;;;;;17.58;77.51;100752.13;7392182;19;20023;-61
2023/08/07 00:30:56;;;;;;;9.30;4.10;;;;;;;17.61;77.38;100755.31;7394443;19;20039;-62
2023/08/07 00:33:24;;;;;;;11.13;3.70;;;;;;;17.62;77.17;100745.44;7393112;19;20018;-62
2023/08/07 00:35:51;;;;;;;10.07;3.88;;;;;;;17.61;77.40;100749.97;7393430;19;20019;-62
2023/08/07 00:38:18;;;;;;;9.38;3.50;;;;;;;17.60;77.59;100748.28;7391409;19;20019;-61
2023/08/07 00:40:46;;;;;;;8.50;3.40;;;;;;;17.65;77.63;100747.81;7394470;19;20054;-62
2023/08/07 00:43:13;;;;;;;8.95;4.00;;;;;;;17.63;77.48;100753.34;7392031;19;20014;-65
2023/08/07 00:45:43;;;;;;;7.93;3.60;;;;;;;17.56;78.16;100752.28;7393209;19;20094;-63
2023/08/07 00:48:11;;;;;;;7.72;3.55;;;;;;;17.45;77.90;100744.53;7393201;19;20048;-60
2023/08/07 00:50:41;;;;;;;9.95;4.00;;;;;;;17.50;77.90;100750.22;7392284;19;20085;-64
2023/08/07 00:53:14;;;;;;;9.77;4.07;;;;;;;17.50;78.19;100743.03;7391903;19;20011;-64
2023/08/07 00:55:42;;;;;;;9.43;3.90;;;;;;;17.53;77.93;100736.53;7392934;19;20015;-66
2023/08/07 00:58:10;;;;;;;7.68;3.78;;;;;;;17.54;77.66;100747.06;7391394;19;20022;-65
2023/08/07 01:00:38;;;;;;;8.18;3.35;;;;;;;17.54;77.59;100755.09;7393752;19;20487;-61
2023/08/07 01:03:06;;;;;;;11.48;4.40;;;;;;;17.48;77.68;100749.56;7389737;19;20039;-64
2023/08/07 01:05:34;;;;;;;12.57;4.32;;;;;;;17.46;77.44;100751.53;7392824;19;20018;-62
2023/08/07 01:08:02;;;;;;;11.73;4.03;;;;;;;17.52;77.40;100751.75;7392867;19;20027;-64
2023/08/07 01:10:51;;;;;;;10.05;4.10;;;;;;;17.63;77.10;100749.78;7392839;19;20015;-65
2023/08/07 01:13:29;;;;;;;11.60;4.45;;;;;;;17.58;77.07;100752.13;7393559;19;20081;-65
2023/08/07 01:16:01;;;;;;;12.43;3.85;;;;;;;17.37;77.62;100739.13;7392447;19;20353;-66
2023/08/07 01:18:30;;;;;;;10.73;4.53;;;;;;;17.36;77.84;100745.44;7391932;19;20035;-68
2023/08/07 01:20:58;;;;;;;10.88;4.13;;;;;;;17.33;77.79;100743.94;7392279;19;20122;-68
2023/08/07 01:23:25;;;;;;;7.05;3.95;;;;;;;17.29;77.91;100735.38;7391496;19;20023;-64
2023/08/07 01:25:52;;;;;;;10.48;4.10;;;;;;;17.36;77.56;100740.09;7391627;19;20088;-66
2023/08/07 01:28:36;;;;;;;10.88;4.20;;;;;;;17.38;77.43;100732.75;7391870;19;20029;-64
2023/08/07 01:31:10;;;;;;;10.02;4.13;;;;;;;17.32;77.85;100736.88;7390738;19;20052;-62
2023/08/07 01:33:54;;;;;;;9.60;3.85;;;;;;;17.28;78.06;100728.38;7392828;19;20025;-63
2023/08/07 01:36:24;;;;;;;10.80;4.10;;;;;;;17.27;77.96;100726.66;7389905;19;20022;-61
2023/08/07 01:38:54;;;;;;;10.88;4.50;;;;;;;17.17;78.35;100733.97;7391594;19;20138;-63
2023/08/07 01:41:21;;;;;;;9.02;4.25;;;;;;;17.20;77.91;100738.97;7390551;19;20171;-62
2023/08/07 01:43:49;;;;;;;9.43;4.30;;;;;;;17.26;78.06;100735.69;7390656;19;20074;-68
2023/08/07 01:46:17;;;;;;;13.80;5.38;;;;;;;17.29;78.07;100746.09;7389326;19;20014;-66
2023/08/07 01:48:44;;;;;;;12.73;5.10;;;;;;;17.24;78.08;100737.69;7391131;19;20085;-64
2023/08/07 01:51:12;;;;;;;12.10;5.03;;;;;;;17.23;78.08;100733.31;7390319;19;20020;-64
2023/08/07 01:53:39;;;;;;;12.50;4.70;;;;;;;17.27;77.83;100733.84;7393492;19;20014;-64
2023/08/07 01:56:07;;;;;;;12.93;4.70;;;;;;;17.26;78.08;100734.84;7390809;19;20093;-65
2023/08/07 01:58:34;;;;;;;13.52;4.68;;;;;;;17.24;78.09;100726.97;7385951;19;20081;-62
2023/08/07 02:01:01;;;;;;;10.68;4.65;;;;;;;17.26;78.12;100732.19;7390146;19;20775;-63
2023/08/07 02:03:29;;;;;;;10.70;4.68;;;;;;;17.26;78.26;100734.84;7388696;19;20018;-67
2023/08/07 02:05:56;;;;;;;10.88;4.47;;;;;;;17.18;78.52;100735.66;7387329;19;20034;-63
2023/08/07 02:08:23;;;;;;;11.07;4.45;;;;;;;17.19;78.56;100733.81;7389571;19;20094;-64
2023/08/07 02:10:51;;;;;;;11.88;4.85;;;;;;;17.12;78.63;100735.41;7391609;19;20089;-63
2023/08/07 02:13:18;;;;;;;12.38;4.88;;;;;;;17.14;78.48;100738.78;7391576;19;20078;-63
2023/08/07 02:15:45;;;;;;;11.93;4.68;;;;;;;17.15;78.44;100735.94;7390468;19;20018;-63
2023/08/07 02:18:13;;;;;;;7.40;4.10;;;;;;;17.18;78.37;100734.81;7388995;19;20500;-66
2023/08/07 02:20:40;;;;;;;10.95;4.43;;;;;;;17.12;78.67;100738.09;7391779;19;20050;-62
2023/08/07 02:23:07;;;;;;;8.52;4.30;;;;;;;17.04;78.78;100729.00;7389841;19;20381;-63
2023/08/07 02:25:35;;;;;;;8.80;4.00;;;;;;;17.03;78.83;100731.84;7390094;19;20014;-63
2023/08/07 02:28:02;;;;;;;9.00;4.28;;;;;;;17.04;78.85;100734.34;7390634;19;20044;-63
2023/08/07 02:30:31;;;;;;;7.97;4.68;;;;;;;16.98;79.03;100740.34;7390794;19;20038;-63
2023/08/07 02:32:58;;;;;;;9.13;4.25;;;;;;;16.99;79.26;100733.16;7391201;19;20018;-63
2023/08/07 02:35:25;;;;;;;6.90;3.70;;;;;;;16.98;79.07;100743.03;7390518;19;20460;-63
2023/08/07 02:37:53;;;;;;;9.15;4.10;;;;;;;17.06;78.81;100742.25;7390462;19;20023;-63
2023/08/07 02:40:20;;;;;;;8.40;4.40;;;;;;;17.07;78.70;100740.41;7391281;19;20089;-63
2023/08/07 02:42:47;;;;;;;8.75;4.13;;;;;;;17.05;78.61;100735.19;7387804;19;20022;-63
2023/08/07 02:45:15;;;;;;;11.80;4.50;;;;;;;16.99;78.52;100736.66;7390449;19;20014;-60
2023/08/07 02:47:42;;;;;;;9.40;3.78;;;;;;;16.97;78.79;100729.78;7389697;19;20472;-63
2023/08/07 02:50:09;;;;;;;6.80;3.63;;;;;;;16.96;79.00;100725.44;7389153;19;20011;-63
2023/08/07 02:52:37;;;;;;;10.35;4.57;;;;;;;16.97;78.65;100722.59;7390114;19;20027;-63
2023/08/07 02:55:04;;;;;;;7.22;3.72;;;;;;;16.94;79.01;100735.44;7388516;19;20035;-63
2023/08/07 02:57:32;;;;;;;10.65;3.70;;;;;;;16.95;78.82;100735.31;7389190;19;20015;-63
2023/08/07 02:59:59;;;;;;;12.00;4.25;;;;;;;16.86;79.16;100725.50;7389976;19;20085;-63
2023/08/07 03:02:26;;;;;;;10.35;3.92;;;;;;;16.92;79.21;100727.56;7389554;19;20031;-62
2023/08/07 03:04:54;;;;;;;10.45;4.40;;;;;;;16.92;79.12;100721.41;7393555;19;20022;-62
2023/08/07 03:07:21;;;;;;;9.98;4.18;;;;;;;16.94;79.15;100719.38;7389679;19;20043;-62
2023/08/07 03:09:48;;;;;;;7.57;4.20;;;;;;;16.95;78.73;100713.91;7387666;19;20035;-62
2023/08/07 03:12:16;;;;;;;7.47;3.83;;;;;;;16.98;78.91;100710.91;7388174;19;20082;-62
2023/08/07 03:14:43;;;;;;;7.45;3.95;;;;;;;16.96;78.92;100712.91;7389267;19;20488;-64
2023/08/07 03:17:10;;;;;;;8.07;3.85;;;;;;;16.96;78.98;100704.03;7387688;19;20090;-62
2023/08/07 03:19:41;;;;;;;7.45;3.70;;;;;;;16.96;79.17;100707.53;7388062;19;20022;-64
2023/08/07 03:22:09;;;;;;;8.40;3.80;;;;;;;16.88;79.06;100710.16;7393002;19;20524;-62
2023/08/07 03:24:36;;;;;;;8.02;3.85;;;;;;;16.92;79.35;100718.72;7396955;19;20014;-63
2023/08/07 03:27:04;;;;;;;9.05;3.55;;;;;;;16.95;79.34;100716.56;7396558;19;20029;-61
2023/08/07 03:29:32;;;;;;;10.77;3.90;;;;;;;17.00;78.79;100718.78;7393780;19;20173;-62
2023/08/07 03:31:59;;;;;;;7.15;3.60;;;;;;;16.98;79.08;100712.72;7394752;19;20022;-61
2023/08/07 03:34:26;;;;;;;9.20;4.30;;;;;;;16.97;79.03;100721.75;7396550;19;20023;-62
2023/08/07 03:36:53;;;;;;;8.20;3.28;;;;;;;17.00;78.82;100719.63;7395445;19;20081;-63
2023/08/07 03:39:21;;;;;;;9.50;3.78;;;;;;;16.98;78.51;100718.94;7394388;19;20028;-63
2023/08/07 03:41:49;;;;;;;6.78;3.55;;;;;;;16.96;78.67;100720.91;7395919;19;20109;-62
2023/08/07 03:44:16;;;;;;;7.93;3.70;;;;;;;16.92;78.74;100729.41;7394318;19;20081;-63
2023/08/07 03:46:43;;;;;;;9.20;4.22;;;;;;;16.91;78.74;100736.59;7395138;19;20011;-63
2023/08/07 03:49:11;;;;;;;6.72;3.10;;;;;;;16.96;78.51;100754.88;7393910;19;20019;-63
2023/08/07 03:51:38;;;;;;;9.30;3.08;;;;;;;16.93;78.33;100741.78;7396156;19;20020;-63
2023/08/07 03:54:05;;;;;;;7.80;2.85;;;;;;;16.91;78.89;100744.63;7396035;19;20021;-63
2023/08/07 03:56:36;;;;;;;6.15;2.83;;;;;;;16.84;79.65;100750.75;7395033;19;20019;-63
2023/08/07 03:59:03;;;;;;;8.25;3.25;;;;;;;16.77;80.42;100742.50;7394441;19;20487;-63
2023/08/07 04:01:31;;;;;;;7.63;3.03;;;;;;;16.85;79.74;100739.06;7395359;19;20026;-64
2023/08/07 04:03:58;;;;;;;9.20;3.50;;;;;;;16.75;80.36;100740.00;7395866;19;20047;-64
2023/08/07 04:06:26;;;;;;;7.63;3.15;;;;;;;16.74;80.46;100734.78;7395066;19;20024;-63
2023/08/07 04:08:54;;;;;;;7.65;3.03;;;;;;;16.69;79.76;100732.53;7392270;19;20367;-63
2023/08/07 04:11:21;;;;;;;6.72;2.70;;;;;;;16.73;79.35;100735.75;7395410;19;20082;-63
2023/08/07 04:13:48;;;;;;;8.13;2.20;;;;;;;16.70;79.10;100736.03;7395535;19;20090;-63
2023/08/07 04:16:16;;;;;;;5.18;2.28;;;;;;;16.76;79.00;100741.66;7392559;19;20014;-63
2023/08/07 04:18:44;;;;;;;6.18;2.20;;;;;;;16.74;79.17;100743.63;7393549;19;20508;-65
2023/08/07 04:21:11;;;;;;;5.88;2.25;;;;;;;16.72;79.05;100742.94;7395267;19;20043;-66
2023/08/07 04:23:38;;;;;;;5.85;2.28;;;;;;;16.71;78.95;100751.94;7393778;19;20019;-66
2023/08/07 04:26:09;;;;;;;5.43;2.22;;;;;;;16.67;78.76;100747.03;7392374;19;20492;-66
2023/08/07 04:28:36;;;;;;;4.70;2.22;;;;;;;16.68;78.58;100738.88;7393737;19;20087;-66
2023/08/07 04:31:04;;;;;;;6.05;2.55;;;;;;;16.68;78.59;100733.53;7394897;19;20491;-65
2023/08/07 04:33:31;;;;;;;5.35;2.25;;;;;;;16.64;78.57;100742.03;7392000;19;20035;-66
2023/08/07 04:35:58;;;;;;;4.22;2.28;;;;;;;16.64;78.42;100750.03;7393421;19;20019;-66
2023/08/07 04:38:26;;;;;;;7.45;2.00;;;;;;;16.66;78.46;100751.56;7393438;19;20488;-65
2023/08/07 04:40:53;;;;;;;5.68;2.40;;;;;;;16.68;78.30;100757.59;7393778;19;20014;-64
2023/08/07 04:43:21;;;;;;;5.72;2.92;;;;;;;16.67;78.08;100752.38;7391769;19;20391;-62
2023/08/07 04:45:48;;;;;;;7.30;3.05;;;;;;;16.76;77.72;100752.34;7393191;19;20014;-61
2023/08/07 04:48:17;;;;;;;7.68;2.60;;;;;;;16.79;77.54;100759.25;7393391;19;20022;-61
2023/08/07 04:50:45;;;;;;;5.97;2.80;;;;;;;16.77;77.41;100759.38;7394260;19;20030;-62
2023/08/07 04:53:12;;;;;;;10.43;3.75;;;;;;;16.78;77.49;100758.38;7394268;19;20379;-63
2023/08/07 04:55:40;;;;;;;10.90;4.60;;;;;;;16.79;77.53;100769.94;7392547;19;20014;-62
2023/08/07 04:58:07;;;;;;;9.05;3.65;;;;;;;16.88;77.44;100771.69;7393551;19;20162;-63
2023/08/07 05:00:35;;;;;;;7.53;3.28;;;;;;;16.75;77.82;100768.53;7391774;19;20022;-66
2023/08/07 05:03:02;;;;;;;8.15;2.85;;;;;;;16.77;77.82;100774.59;7393465;19;20018;-66
2023/08/07 05:05:30;;;;;;;4.28;1.83;;;;;;;16.84;77.23;100775.66;7397481;19;20035;-66
2023/08/07 05:07:58;;;;;;;5.35;2.13;;;;;;;16.80;77.28;100775.13;7392309;19;20023;-65
2023/08/07 05:10:25;;;;;;;3.63;1.90;;;;;;;16.77;77.31;100778.09;7393695;19;20018;-67
2023/08/07 05:12:55;;;;;;;7.30;2.13;;;;;;;16.77;76.98;100774.59;7391734;19;20026;-65
2023/08/07 05:15:24;;;;;;;6.93;1.90;;;;;;;16.78;76.83;100769.06;7392719;19;20043;-65
2023/08/07 05:17:52;;;;;;;4.63;1.85;;;;;;;16.79;76.92;100777.97;7393041;19;20054;-65
2023/08/07 05:20:19;;;;;;;4.45;1.80;;;;;;;16.75;77.30;100780.09;7393494;19;20011;-64
2023/08/07 05:22:47;;;;;;;4.50;1.90;;;;;;;16.78;77.45;100776.25;7393050;19;20433;-64
2023/08/07 05:25:16;;;;;;;5.60;1.95;;;;;;;16.79;76.76;100775.28;7393100;19;20047;-63
2023/08/07 05:27:44;;;;;;;5.72;2.15;;;;;;;16.71;76.69;100785.84;7391779;19;20037;-63
2023/08/07 05:30:12;;;;;;;7.82;2.10;;;;;;;16.63;77.46;100781.25;7393167;19;20018;-67
2023/08/07 05:32:39;;;;;;;5.65;1.83;;;;;;;16.73;76.90;100790.09;7392674;19;20051;-66
2023/08/07 05:35:08;;;;;;;6.05;1.88;;;;;;;16.77;76.46;100779.94;7392107;19;20014;-65
2023/08/07 05:37:36;;;;;;;4.45;1.92;;;;;;;16.76;76.82;100791.63;7391459;19;20368;-65
2023/08/07 05:40:04;;;;;;;7.88;2.47;;;;;;;16.82;76.57;100793.69;7392375;19;20058;-63
2023/08/07 05:42:32;;;;;;;6.32;2.00;;;;;;;16.90;76.44;100799.09;7390478;19;20021;-62
2023/08/07 05:44:59;;;;;;;6.32;2.10;;;;;;;16.93;76.13;100798.81;7389472;19;20018;-64
2023/08/07 05:47:26;;;;;;;6.35;1.80;;;;;;;16.87;76.10;100806.63;7391496;19;20511;-63
2023/08/07 05:49:54;;;;;;;7.53;1.70;;;;;;;16.87;76.03;100807.47;7390113;19;20022;-62
2023/08/07 05:52:21;;;;;;;8.98;2.10;;;;;;;16.89;76.00;100813.47;7390694;19;20094;-62
2023/08/07 05:54:49;;;;;;;5.93;1.63;;;;;;;16.93;75.66;100816.69;7392097;19;20380;-63
2023/08/07 05:57:17;;;;;;;7.75;1.60;;;;;;;17.05;75.37;100810.94;7391598;19;20089;-63
2023/08/07 05:59:45;;;;;;;14.15;2.20;;;;;;;17.11;74.82;100814.88;7390338;19;20019;-61
2023/08/07 06:02:12;;;;;;;7.47;1.80;;;;;;;17.24;74.38;100801.91;7390364;19;20026;-62
2023/08/07 06:04:40;;;;;;;8.25;2.42;;;;;;;17.26;74.61;100807.97;7391563;19;20357;-61
2023/08/07 06:07:08;;;;;;;7.70;1.98;;;;;;;17.28;74.52;100792.59;7391040;19;20475;-62
2023/08/07 06:09:35;;;;;;;6.85;1.90;;;;;;;17.28;74.29;100800.63;7390427;19;20139;-65
2023/08/07 06:12:03;;;;;;;6.97;2.13;;;;;;;17.29;74.59;100807.66;7391514;19;20035;-66
2023/08/07 06:14:30;;;;;;;8.10;2.28;;;;;;;17.37;74.64;100814.06;7391437;19;20159;-62
2023/08/07 06:17:00;;;;;;;8.85;2.10;;;;;;;17.39;74.44;100802.19;7390720;19;20020;-63
2023/08/07 06:19:28;;;;;;;13.68;2.15;;;;;;;17.34;74.52;100799.16;7390078;19;20039;-60
2023/08/07 06:21:59;;;;;;;10.27;2.25;;;;;;;17.38;74.60;100802.38;7391041;19;20022;-62
2023/08/07 06:24:28;;;;;;;7.93;2.08;;;;;;;17.41;74.75;100794.03;7390179;19;20025;-62
2023/08/07 06:26:55;;;;;;;11.63;2.33;;;;;;;17.33;74.47;100799.31;7390009;19;20040;-68
2023/08/07 06:35:48;;;;;;;;;;;;;;;;;;;;;
2023/08/07 06:38:28;;;;;;;11.45;2.42;;;;;;;17.28;75.38;100807.78;7388519;19;20024;-75
2023/08/07 06:40:56;;;;;;;8.75;2.40;;;;;;;17.61;74.43;100824.13;7388695;19;20025;-74
2023/08/07 06:43:23;;;;;;;11.93;2.88;;;;;;;17.57;75.02;100831.63;7388955;19;20374;-73
2023/08/07 06:45:55;;;;;;;10.55;2.40;;;;;;;17.48;75.71;100832.56;7390291;19;20019;-73
2023/08/07 06:48:23;;;;;;;10.40;2.67;;;;;;;17.45;75.89;100841.75;7388020;19;20484;-73
2023/08/07 06:50:51;;;;;;;11.15;2.80;;;;;;;17.39;76.14;100826.28;7390161;19;20039;-74
2023/08/07 06:53:19;;;;;;;8.55;2.28;;;;;;;17.51;76.15;100827.75;7390151;19;20457;-73
2023/08/07 06:55:47;;;;;;;10.80;2.75;;;;;;;17.56;76.14;100823.75;7389229;19;20029;-74
2023/08/07 06:58:14;;;;;;;10.65;2.60;;;;;;;17.50;76.10;100841.28;7397009;19;20467;-73
2023/08/07 07:00:41;;;;;;;9.00;2.58;;;;;;;17.41;76.26;100828.84;7395963;19;20011;-74
2023/08/07 07:03:09;;;;;;;8.88;2.42;;;;;;;17.41;76.33;100831.50;7397988;19;20096;-74
2023/08/07 07:05:37;;;;;;;8.63;2.65;;;;;;;17.49;75.89;100826.22;7392335;19;20032;-74
2023/08/07 07:08:04;;;;;;;12.15;3.03;;;;;;;17.58;75.30;100827.09;7396406;19;20458;-74
2023/08/07 07:10:32;;;;;;;10.70;3.20;;;;;;;17.70;75.32;100836.56;7397002;19;20027;-62
2023/08/07 07:12:59;;;;;;;9.65;3.28;;;;;;;17.72;75.43;100837.25;7397529;19;20056;-62
2023/08/07 07:15:27;;;;;;;10.40;3.55;;;;;;;17.66;75.42;100836.03;7396562;19;20039;-62
2023/08/07 07:17:54;;;;;;;12.68;3.40;;;;;;;17.71;75.79;100832.91;7396346;19;20014;-62
2023/08/07 07:20:21;;;;;;;9.57;2.70;;;;;;;17.70;75.32;100844.59;7395856;19;20014;-62
2023/08/07 07:22:49;;;;;;;11.88;2.80;;;;;;;17.75;75.55;100847.69;7396723;19;20082;-69
2023/08/07 07:25:16;;;;;;;11.15;2.83;;;;;;;17.68;74.83;100834.03;7394712;19;20086;-68
2023/08/07 07:27:44;;;;;;;9.32;2.72;;;;;;;17.69;75.06;100842.91;7395321;19;20051;-68
2023/08/07 07:30:11;;;;;;;12.82;2.60;;;;;;;17.49;75.16;100843.13;7397084;19;20472;-69
2023/08/07 07:32:38;;;;;;;11.60;3.03;;;;;;;17.52;75.04;100845.47;7396570;19;20539;-69
2023/08/07 07:35:07;;;;;;;10.10;2.83;;;;;;;17.68;74.32;100847.44;7395324;19;20018;-68
2023/08/07 07:37:34;;;;;;;8.70;2.72;;;;;;;17.72;73.13;100856.00;7395025;19;20015;-69
2023/08/07 07:40:02;;;;;;;14.60;3.22;;;;;;;17.73;73.26;100844.28;7396540;19;20010;-64
2023/08/07 07:42:30;;;;;;;12.88;3.85;;;;;;;17.73;72.82;100853.16;7395869;19;20429;-69
2023/08/07 07:44:57;;;;;;;10.23;3.17;;;;;;;17.70;72.92;100845.41;7394593;19;20036;-69
2023/08/07 07:47:24;;;;;;;12.38;3.15;;;;;;;17.65;72.81;100855.78;7394677;19;20490;-70
2023/08/07 07:50:06;;;;;;;15.55;3.35;;;;;;;17.67;71.74;100853.81;7396212;19;20483;-69
2023/08/07 07:52:34;;;;;;;13.35;3.60;;;;;;;17.65;72.08;100846.91;7395877;19;20011;-70
2023/08/07 07:55:01;;;;;;;10.85;3.53;;;;;;;17.61;71.41;100859.75;7395856;19;20124;-71
2023/08/07 07:57:29;;;;;;;15.02;3.20;;;;;;;17.61;71.34;100862.44;7394958;19;20026;-72
2023/08/07 07:59:57;;;;;;;14.77;3.40;;;;;;;17.77;71.17;100859.06;7395408;19;20022;-72
2023/08/07 08:02:24;;;;;;;13.90;3.05;;;;;;;17.94;70.44;100873.44;7394146;19;20048;-67
2023/08/07 08:04:52;;;;;;;12.13;3.08;;;;;;;18.02;69.15;100885.03;7397778;19;20099;-67
2023/08/07 08:07:19;;;;;;;13.05;3.05;;;;;;;17.99;68.80;100865.75;7394324;19;20086;-65
2023/08/07 08:09:47;;;;;;;13.20;3.30;;;;;;;17.87;68.35;100880.41;7395049;19;20025;-65
2023/08/07 08:12:14;;;;;;;10.43;2.72;;;;;;;17.87;68.66;100883.09;7395504;19;20022;-66
2023/08/07 08:14:42;;;;;;;10.73;2.50;;;;;;;17.93;68.44;100890.47;7394708;19;20018;-65
2023/08/07 08:17:29;;;;;;;10.93;3.13;;;;;;;17.92;68.19;100895.00;7393668;19;20018;-66
2023/08/07 08:19:56;;;;;;;8.32;2.47;;;;;;;17.95;67.10;100897.38;7394141;19;20436;-65
2023/08/07 08:22:24;;;;;;;11.48;2.60;;;;;;;17.93;67.13;100885.13;7394563;19;20022;-66
2023/08/07 08:24:51;;;;;;;15.48;3.40;;;;;;;18.01;66.67;100882.53;7394196;19;20090;-62
2023/08/07 08:27:18;;;;;;;9.38;2.65;;;;;;;18.10;66.88;100873.50;7393874;19;20047;-62
2023/08/07 08:29:46;;;;;;;11.55;2.75;;;;;;;18.30;65.88;100879.47;7393710;19;20018;-62
2023/08/07 08:32:13;;;;;;;15.13;2.95;;;;;;;18.36;65.53;100884.22;7394373;19;20011;-62
2023/08/07 08:34:41;;;;;;;11.07;2.78;;;;;;;18.58;64.72;100869.34;7394760;19;20010;-62
2023/08/07 08:37:10;;;;;;;11.85;2.70;;;;;;;18.61;63.61;100882.44;7393191;19;20019;-62
2023/08/07 08:39:37;;;;;;;13.02;2.83;;;;;;;18.58;63.61;100900.72;7394882;19;20413;-62
2023/08/07 08:42:05;;;;;;;13.35;2.95;;;;;;;18.64;63.51;100900.91;7394522;19;20023;-62
2023/08/07 08:44:38;;;;;;;10.40;2.58;;;;;;;18.56;63.18;100898.19;7393656;19;20039;-62
2023/08/07 08:47:08;;;;;;;7.63;2.50;;;;;;;18.47;63.68;100904.53;7393436;19;20025;-63
2023/08/07 08:49:45;;;;;;;11.55;2.65;;;;;;;18.53;61.89;100911.94;7394546;19;20018;-62
2023/08/07 08:52:13;;;;;;;12.75;2.60;;;;;;;18.69;61.78;100911.16;7393592;19;20046;-63
2023/08/07 08:54:41;;;;;;;11.05;2.80;;;;;;;18.77;61.59;100910.38;7394120;19;20022;-62
2023/08/07 08:57:11;;;;;;;11.50;2.75;;;;;;;18.75;62.03;100918.59;7393038;19;20014;-62
2023/08/07 08:59:39;;;;;;;10.30;2.47;;;;;;;18.79;61.52;100927.16;7393925;19;20061;-62
2023/08/07 09:02:08;;;;;;;13.00;2.60;;;;;;;18.61;63.36;100935.25;7394316;19;20102;-65
2023/08/07 09:04:36;;;;;;;10.52;2.25;;;;;;;18.47;63.84;100924.16;7395752;19;20054;-65
2023/08/07 09:07:04;;;;;;;11.20;2.67;;;;;;;18.52;63.92;100940.59;7393023;19;20042;-65
2023/08/07 09:09:32;;;;;;;13.68;3.15;;;;;;;18.33;64.46;100938.16;7392895;19;20018;-63
2023/08/07 09:12:01;;;;;;;12.98;3.25;;;;;;;18.25;65.56;100976.47;7393169;19;20019;-63
2023/08/07 09:14:33;;;;;;;11.25;2.60;;;;;;;17.99;66.15;100968.41;7393108;19;20097;-72
2023/08/07 09:17:01;;;;;;;10.98;2.70;;;;;;;17.60;68.05;100978.63;7391402;19;20047;-70
2023/08/07 09:19:29;;;;;;;12.48;3.20;;;;;;;17.39;69.05;100981.56;7391897;19;20019;-71
2023/08/07 09:21:56;;;;;;;9.57;2.95;;;;;;;17.36;69.94;100975.69;7393283;19;20029;-70
2023/08/07 09:24:23;;;;;;;10.68;3.28;;;;;;;17.48;69.57;100982.50;7392518;19;20021;-71
2023/08/07 09:26:53;;;;;;;13.50;3.33;;;;;;;17.45;70.00;100974.78;7392766;19;20064;-68
2023/08/07 09:29:22;;;;;;;15.85;3.17;;;;;;;17.37;70.26;100977.38;7391593;19;20070;-70
2023/08/07 09:31:49;;;;;;;16.70;3.30;;;;;;;17.32;70.77;100995.72;7392957;19;20032;-71
2023/08/07 09:34:20;;;;;;;13.75;3.30;;;;;;;17.38;70.01;100982.56;7389968;19;20022;-65
2023/08/07 09:36:48;;;;;;;15.10;3.30;;;;;;;17.43;70.30;100984.78;7389793;19;20025;-67
2023/08/07 09:39:15;;;;;;;9.48;3.25;;;;;;;17.48;70.43;100982.50;7391456;19;20101;-67
2023/08/07 09:41:42;;;;;;;13.95;3.53;;;;;;;17.70;69.71;100987.38;7392224;19;20100;-67
2023/08/07 09:44:13;;;;;;;12.65;3.28;;;;;;;17.78;68.80;100974.13;7392054;19;20018;-65
2023/08/07 09:46:42;;;;;;;13.95;3.17;;;;;;;18.02;67.81;100970.78;7391393;19;20010;-65
2023/08/07 09:49:10;;;;;;;13.57;3.13;;;;;;;18.17;66.50;100970.22;7390080;19;20108;-65
2023/08/07 09:51:47;;;;;;;12.27;2.97;;;;;;;18.48;65.74;100975.94;7390366;19;20018;-65
2023/08/07 09:54:15;;;;;;;12.93;3.03;;;;;;;18.41;65.88;100969.53;7389469;19;20495;-65
2023/08/07 09:56:43;;;;;;;9.73;2.88;;;;;;;18.69;63.68;100973.69;7391011;19;20479;-66
2023/08/07 09:59:11;;;;;;;7.75;2.80;;;;;;;18.47;62.88;100980.47;7389938;19;20035;-66
2023/08/07 10:01:40;;;;;;;9.48;2.75;;;;;;;18.31;62.52;100975.00;7391465;19;20015;-66
2023/08/07 10:04:08;;;;;;;12.60;2.47;;;;;;;18.42;60.33;100979.25;7392228;19;20018;-66
2023/08/07 10:06:35;;;;;;;9.98;2.35;;;;;;;18.41;58.06;100981.09;7391192;19;20010;-66
2023/08/07 10:09:03;;;;;;;9.57;1.92;;;;;;;18.40;56.41;100987.47;7391998;19;20021;-66
2023/08/07 10:11:31;;;;;;;11.93;2.70;;;;;;;18.57;56.72;100988.38;7395728;19;20512;-66
2023/08/07 10:13:59;;;;;;;10.65;2.30;;;;;;;18.71;56.48;100998.56;7392388;19;20039;-66
2023/08/07 10:16:28;;;;;;;9.60;2.60;;;;;;;18.50;56.01;101006.94;7390411;19;20018;-66
2023/08/07 10:18:55;;;;;;;11.88;2.70;;;;;;;18.23;55.97;100991.88;7389200;19;20023;-65
2023/08/07 10:21:24;;;;;;;12.80;2.80;;;;;;;18.26;56.13;100991.56;7390733;19;20097;-67
2023/08/07 10:23:54;;;;;;;11.30;3.80;;;;;;;18.64;55.96;100997.50;7389637;19;20011;-66
2023/08/07 10:26:23;;;;;;;11.68;3.55;;;;;;;18.92;55.83;100987.41;7388271;19;20086;-66
2023/08/07 10:28:52;;;;;;;10.82;3.03;;;;;;;19.04;55.34;100993.34;7391516;19;20492;-66
2023/08/07 10:31:22;;;;;;;9.02;2.60;;;;;;;18.92;55.79;100995.47;7395025;19;20484;-66
2023/08/07 10:33:50;;;;;;;10.90;2.65;;;;;;;18.81;55.99;101001.16;7397118;19;20043;-66
2023/08/07 10:36:18;;;;;;;11.50;2.63;;;;;;;18.97;55.46;101003.06;7396303;19;20046;-66
2023/08/07 10:38:50;;;;;;;11.68;2.90;;;;;;;18.90;55.57;101008.22;7394743;19;20022;-66
2023/08/07 10:41:18;;;;;;;10.35;3.50;;;;;;;18.61;56.85;101018.44;7398166;19;20014;-66
2023/08/07 10:43:48;;;;;;;12.95;3.92;;;;;;;18.44;57.72;101033.59;7395770;19;20373;-66
2023/08/07 10:46:19;;;;;;;9.13;2.30;;;;;;;18.31;60.65;101049.22;7395559;19;20056;-66
2023/08/07 10:48:59;;;;;;;8.55;2.30;;;;;;;18.02;64.20;101055.72;7395564;19;20018;-66
2023/08/07 10:51:30;;;;;;;5.57;2.25;;;;;;;18.00;65.74;101065.72;7396903;19;20560;-65
2023/08/07 10:54:00;;;;;;;7.78;2.40;;;;;;;18.03;66.51;101060.91;7397595;19;20014;-66
2023/08/07 10:56:34;;;;;;;7.22;2.00;;;;;;;17.88;66.35;101064.28;7397771;19;20106;-66
2023/08/07 10:59:09;;;;;;;;;;;;;;;17.74;66.22;101058.44;7395177;19;20019;-67
2023/08/07 11:01:43;;;;;;;9.38;2.47;;;;;;;17.91;65.60;101047.91;7397958;19;19955;-66
2023/08/07 11:04:13;;;;;;;11.63;2.85;;;;;;;18.10;64.54;101039.69;7400032;19;20022;-66
2023/08/07 11:06:42;;;;;;;9.30;2.83;;;;;;;18.26;63.19;101045.19;7394485;19;20018;-66
2023/08/07 11:09:10;;;;;;;12.25;2.97;;;;;;;18.41;61.57;101036.56;7395199;19;20019;-66
2023/08/07 11:11:42;;;;;;;8.93;2.53;;;;;;;18.55;60.84;101027.97;7396873;19;20499;-66
2023/08/07 11:14:15;;;;;;;7.75;2.45;;;;;;;18.60;60.26;101038.22;7397556;19;20018;-66
2023/08/07 11:16:44;;;;;;;10.77;2.72;;;;;;;18.60;60.46;101039.03;7395581;19;20029;-66
2023/08/07 11:19:13;;;;;;;7.30;2.20;;;;;;;18.60;60.08;101035.53;7394764;19;20018;-64
2023/08/07 11:21:42;;;;;;;10.15;2.58;;;;;;;18.47;59.26;101035.97;7396505;19;20011;-65
2023/08/07 11:24:13;;;;;;;10.25;2.50;;;;;;;18.33;59.68;101036.53;7396635;19;20018;-66
2023/08/07 11:26:43;;;;;;;10.70;3.20;;;;;;;18.30;60.26;101034.16;7392444;19;20011;-64
2023/08/07 11:29:15;;;;;;;13.65;2.95;;;;;;;18.35;59.92;101039.88;7392876;19;20015;-65
2023/08/07 11:31:42;;;;;;;10.65;2.90;;;;;;;18.36;59.26;101031.69;7395316;19;20018;-65
2023/08/07 11:34:10;;;;;;;11.77;3.45;;;;;;;18.55;59.02;101041.38;7396523;19;20018;-65